sensor_id;sensor_type;location;lat;lon;timestamp;P1;durP1;ratioP1;P2;durP2;ratioP2
53044;SDS011;38930;52.766;6.884;2022-08-06T00:01:48;6.55;;;2.38;;
53044;SDS011;38930;52.766;6.884;2022-08-06T00:04:14;4.00;;;1.97;;
53044;SDS011;38930;52.766;6.884;2022-08-06T00:06:39;4.07;;;2.28;;
53044;SDS011;38930;52.766;6.884;2022-08-06T00:09:05;5.55;;;2.15;;
53044;SDS011;38930;52.766;6.884;2022-08-06T00:11:31;4.45;;;2.00;;
53044;SDS011;38930;52.766;6.884;2022-08-06T00:13:56;6.50;;;2.17;;
53044;SDS011;38930;52.766;6.884;2022-08-06T00:16:22;3.43;;;2.00;;
53044;SDS011;38930;52.766;6.884;2022-08-06T00:18:48;5.35;;;2.40;;
53044;SDS011;38930;52.766;6.884;2022-08-06T00:21:13;4.43;;;2.53;;
53044;SDS011;38930;52.766;6.884;2022-08-06T00:23:39;6.43;;;2.70;;
53044;SDS011;38930;52.766;6.884;2022-08-06T00:26:04;3.78;;;2.42;;
53044;SDS011;38930;52.766;6.884;2022-08-06T00:28:30;4.87;;;2.23;;
53044;SDS011;38930;52.766;6.884;2022-08-06T00:30:56;4.72;;;2.00;;
53044;SDS011;38930;52.766;6.884;2022-08-06T00:33:21;4.80;;;2.00;;
53044;SDS011;38930;52.766;6.884;2022-08-06T00:35:47;4.75;;;2.10;;
53044;SDS011;38930;52.766;6.884;2022-08-06T00:38:13;3.87;;;2.17;;
53044;SDS011;38930;52.766;6.884;2022-08-06T00:40:38;5.20;;;1.88;;
53044;SDS011;38930;52.766;6.884;2022-08-06T00:43:04;3.17;;;2.00;;
53044;SDS011;38930;52.766;6.884;2022-08-06T00:45:30;4.18;;;1.90;;
53044;SDS011;38930;52.766;6.884;2022-08-06T00:47:58;4.72;;;1.98;;
53044;SDS011;38930;52.766;6.884;2022-08-06T00:50:24;4.25;;;2.20;;
53044;SDS011;38930;52.766;6.884;2022-08-06T00:52:50;3.40;;;2.03;;
53044;SDS011;38930;52.766;6.884;2022-08-06T00:55:15;5.20;;;2.13;;
53044;SDS011;38930;52.766;6.884;2022-08-06T00:57:41;5.38;;;2.58;;
53044;SDS011;38930;52.766;6.884;2022-08-06T01:00:07;4.05;;;2.35;;
53044;SDS011;38930;52.766;6.884;2022-08-06T01:02:33;4.18;;;1.88;;
53044;SDS011;38930;52.766;6.884;2022-08-06T01:04:59;5.67;;;2.10;;
53044;SDS011;38930;52.766;6.884;2022-08-06T01:07:24;3.15;;;2.03;;
53044;SDS011;38930;52.766;6.884;2022-08-06T01:09:50;3.10;;;1.98;;
53044;SDS011;38930;52.766;6.884;2022-08-06T01:12:16;7.95;;;2.15;;
53044;SDS011;38930;52.766;6.884;2022-08-06T01:14:42;3.20;;;1.90;;
53044;SDS011;38930;52.766;6.884;2022-08-06T01:17:13;2.47;;;1.73;;
53044;SDS011;38930;52.766;6.884;2022-08-06T01:19:46;5.45;;;2.45;;
53044;SDS011;38930;52.766;6.884;2022-08-06T01:25:46;4.63;;;1.92;;
53044;SDS011;38930;52.766;6.884;2022-08-06T01:28:38;3.42;;;1.98;;
53044;SDS011;38930;52.766;6.884;2022-08-06T01:31:14;3.45;;;2.17;;
53044;SDS011;38930;52.766;6.884;2022-08-06T01:33:46;3.08;;;1.70;;
53044;SDS011;38930;52.766;6.884;2022-08-06T01:36:19;4.63;;;2.08;;
53044;SDS011;38930;52.766;6.884;2022-08-06T01:38:49;2.83;;;1.95;;
53044;SDS011;38930;52.766;6.884;2022-08-06T01:41:21;3.97;;;1.80;;
53044;SDS011;38930;52.766;6.884;2022-08-06T01:44:06;4.82;;;2.00;;
53044;SDS011;38930;52.766;6.884;2022-08-06T01:46:36;2.80;;;1.85;;
53044;SDS011;38930;52.766;6.884;2022-08-06T01:49:08;3.47;;;2.03;;
53044;SDS011;38930;52.766;6.884;2022-08-06T01:51:36;3.40;;;1.90;;
53044;SDS011;38930;52.766;6.884;2022-08-06T01:54:06;4.65;;;1.98;;
53044;SDS011;38930;52.766;6.884;2022-08-06T01:56:35;3.00;;;2.10;;
53044;SDS011;38930;52.766;6.884;2022-08-06T01:59:04;4.88;;;2.50;;
53044;SDS011;38930;52.766;6.884;2022-08-06T02:01:31;3.95;;;2.47;;
53044;SDS011;38930;52.766;6.884;2022-08-06T02:03:59;4.90;;;2.67;;
53044;SDS011;38930;52.766;6.884;2022-08-06T02:06:28;4.00;;;2.00;;
53044;SDS011;38930;52.766;6.884;2022-08-06T02:09:00;3.42;;;2.15;;
53044;SDS011;38930;52.766;6.884;2022-08-06T02:11:32;2.97;;;2.10;;
53044;SDS011;38930;52.766;6.884;2022-08-06T02:14:02;3.92;;;2.00;;
53044;SDS011;38930;52.766;6.884;2022-08-06T02:16:30;5.65;;;3.30;;
53044;SDS011;38930;52.766;6.884;2022-08-06T02:18:59;4.57;;;2.35;;
53044;SDS011;38930;52.766;6.884;2022-08-06T02:21:28;2.97;;;2.40;;
53044;SDS011;38930;52.766;6.884;2022-08-06T02:23:56;4.75;;;2.10;;
53044;SDS011;38930;52.766;6.884;2022-08-06T02:26:25;2.88;;;1.83;;
53044;SDS011;38930;52.766;6.884;2022-08-06T02:28:52;6.80;;;2.58;;
53044;SDS011;38930;52.766;6.884;2022-08-06T02:31:20;5.90;;;2.25;;
53044;SDS011;38930;52.766;6.884;2022-08-06T02:33:46;3.15;;;2.15;;
53044;SDS011;38930;52.766;6.884;2022-08-06T02:36:19;2.90;;;1.90;;
53044;SDS011;38930;52.766;6.884;2022-08-06T02:38:58;5.65;;;2.28;;
53044;SDS011;38930;52.766;6.884;2022-08-06T02:41:40;7.82;;;2.58;;
53044;SDS011;38930;52.766;6.884;2022-08-06T02:47:09;3.00;;;2.22;;
53044;SDS011;38930;52.766;6.884;2022-08-06T02:49:45;4.15;;;2.05;;
53044;SDS011;38930;52.766;6.884;2022-08-06T02:52:15;2.95;;;1.98;;
53044;SDS011;38930;52.766;6.884;2022-08-06T02:54:55;4.13;;;2.15;;
53044;SDS011;38930;52.766;6.884;2022-08-06T02:57:30;2.88;;;2.17;;
53044;SDS011;38930;52.766;6.884;2022-08-06T03:00:06;3.50;;;2.00;;
53044;SDS011;38930;52.766;6.884;2022-08-06T03:02:35;8.23;;;2.00;;
53044;SDS011;38930;52.766;6.884;2022-08-06T03:05:03;5.57;;;2.22;;
53044;SDS011;38930;52.766;6.884;2022-08-06T03:07:31;2.40;;;1.85;;
53044;SDS011;38930;52.766;6.884;2022-08-06T03:09:59;3.35;;;2.08;;
53044;SDS011;38930;52.766;6.884;2022-08-06T03:12:25;5.60;;;1.70;;
53044;SDS011;38930;52.766;6.884;2022-08-06T03:14:52;2.53;;;1.60;;
53044;SDS011;38930;52.766;6.884;2022-08-06T03:19:45;3.95;;;2.08;;
53044;SDS011;38930;52.766;6.884;2022-08-06T03:22:13;2.65;;;1.65;;
53044;SDS011;38930;52.766;6.884;2022-08-06T03:24:40;4.55;;;2.00;;
53044;SDS011;38930;52.766;6.884;2022-08-06T03:29:34;4.80;;;1.80;;
53044;SDS011;38930;52.766;6.884;2022-08-06T03:32:02;3.38;;;1.95;;
53044;SDS011;38930;52.766;6.884;2022-08-06T03:34:28;4.55;;;1.65;;
53044;SDS011;38930;52.766;6.884;2022-08-06T03:36:55;3.95;;;2.22;;
53044;SDS011;38930;52.766;6.884;2022-08-06T03:39:22;3.40;;;1.90;;
53044;SDS011;38930;52.766;6.884;2022-08-06T03:41:50;2.88;;;1.92;;
53044;SDS011;38930;52.766;6.884;2022-08-06T03:44:17;3.35;;;1.95;;
53044;SDS011;38930;52.766;6.884;2022-08-06T03:46:44;2.90;;;2.00;;
53044;SDS011;38930;52.766;6.884;2022-08-06T03:49:21;5.15;;;2.38;;
53044;SDS011;38930;52.766;6.884;2022-08-06T03:51:51;3.22;;;1.75;;
53044;SDS011;38930;52.766;6.884;2022-08-06T03:54:21;4.07;;;2.20;;
53044;SDS011;38930;52.766;6.884;2022-08-06T03:56:54;4.00;;;1.80;;
53044;SDS011;38930;52.766;6.884;2022-08-06T03:59:33;3.53;;;1.95;;
53044;SDS011;38930;52.766;6.884;2022-08-06T04:02:01;3.13;;;2.20;;
53044;SDS011;38930;52.766;6.884;2022-08-06T04:06:55;2.70;;;1.80;;
53044;SDS011;38930;52.766;6.884;2022-08-06T04:09:22;4.22;;;2.17;;
53044;SDS011;38930;52.766;6.884;2022-08-06T04:11:49;3.15;;;2.00;;
53044;SDS011;38930;52.766;6.884;2022-08-06T04:14:15;2.63;;;2.13;;
53044;SDS011;38930;52.766;6.884;2022-08-06T04:16:41;4.83;;;2.53;;
53044;SDS011;38930;52.766;6.884;2022-08-06T04:19:08;5.00;;;2.35;;
53044;SDS011;38930;52.766;6.884;2022-08-06T04:21:36;2.40;;;1.90;;
53044;SDS011;38930;52.766;6.884;2022-08-06T04:24:02;4.95;;;1.85;;
53044;SDS011;38930;52.766;6.884;2022-08-06T04:26:28;3.70;;;2.42;;
53044;SDS011;38930;52.766;6.884;2022-08-06T04:28:54;3.13;;;2.30;;
53044;SDS011;38930;52.766;6.884;2022-08-06T04:31:21;2.95;;;2.05;;
53044;SDS011;38930;52.766;6.884;2022-08-06T04:33:48;2.80;;;2.10;;
53044;SDS011;38930;52.766;6.884;2022-08-06T04:36:16;4.90;;;2.40;;
53044;SDS011;38930;52.766;6.884;2022-08-06T04:38:42;3.77;;;2.20;;
53044;SDS011;38930;52.766;6.884;2022-08-06T04:43:35;4.13;;;2.30;;
53044;SDS011;38930;52.766;6.884;2022-08-06T04:46:01;4.25;;;2.30;;
53044;SDS011;38930;52.766;6.884;2022-08-06T04:48:27;4.03;;;2.53;;
53044;SDS011;38930;52.766;6.884;2022-08-06T04:50:53;4.78;;;2.45;;
53044;SDS011;38930;52.766;6.884;2022-08-06T04:53:19;3.97;;;2.65;;
53044;SDS011;38930;52.766;6.884;2022-08-06T04:55:45;3.30;;;2.58;;
53044;SDS011;38930;52.766;6.884;2022-08-06T04:58:12;4.13;;;2.78;;
53044;SDS011;38930;52.766;6.884;2022-08-06T05:00:41;4.38;;;2.75;;
53044;SDS011;38930;52.766;6.884;2022-08-06T05:03:08;4.43;;;2.92;;
53044;SDS011;38930;52.766;6.884;2022-08-06T05:05:45;4.90;;;2.60;;
53044;SDS011;38930;52.766;6.884;2022-08-06T05:08:15;4.28;;;2.55;;
53044;SDS011;38930;52.766;6.884;2022-08-06T05:10:47;4.40;;;2.50;;
53044;SDS011;38930;52.766;6.884;2022-08-06T05:13:19;6.13;;;2.83;;
53044;SDS011;38930;52.766;6.884;2022-08-06T05:15:49;5.93;;;3.17;;
53044;SDS011;38930;52.766;6.884;2022-08-06T05:18:21;4.75;;;2.70;;
53044;SDS011;38930;52.766;6.884;2022-08-06T05:20:51;5.53;;;3.38;;
53044;SDS011;38930;52.766;6.884;2022-08-06T05:23:53;6.47;;;3.53;;
53044;SDS011;38930;52.766;6.884;2022-08-06T05:26:12;5.45;;;3.00;;
53044;SDS011;38930;52.766;6.884;2022-08-06T05:28:39;6.22;;;2.60;;
53044;SDS011;38930;52.766;6.884;2022-08-06T05:31:05;4.75;;;3.00;;
53044;SDS011;38930;52.766;6.884;2022-08-06T05:33:31;5.03;;;3.47;;
53044;SDS011;38930;52.766;6.884;2022-08-06T05:36:02;4.07;;;3.30;;
53044;SDS011;38930;52.766;6.884;2022-08-06T05:38:29;4.57;;;3.03;;
53044;SDS011;38930;52.766;6.884;2022-08-06T05:40:56;4.90;;;3.30;;
53044;SDS011;38930;52.766;6.884;2022-08-06T05:43:22;4.95;;;2.75;;
53044;SDS011;38930;52.766;6.884;2022-08-06T05:45:49;5.05;;;3.13;;
53044;SDS011;38930;52.766;6.884;2022-08-06T05:48:18;6.55;;;3.55;;
53044;SDS011;38930;52.766;6.884;2022-08-06T05:50:49;4.85;;;2.70;;
53044;SDS011;38930;52.766;6.884;2022-08-06T05:53:21;4.40;;;3.10;;
53044;SDS011;38930;52.766;6.884;2022-08-06T05:56:04;5.32;;;2.58;;
53044;SDS011;38930;52.766;6.884;2022-08-06T05:58:45;5.18;;;2.92;;
53044;SDS011;38930;52.766;6.884;2022-08-06T06:01:16;6.50;;;2.95;;
53044;SDS011;38930;52.766;6.884;2022-08-06T06:03:42;3.67;;;2.77;;
53044;SDS011;38930;52.766;6.884;2022-08-06T06:06:09;6.00;;;3.30;;
53044;SDS011;38930;52.766;6.884;2022-08-06T06:08:36;3.78;;;2.80;;
53044;SDS011;38930;52.766;6.884;2022-08-06T06:11:02;3.47;;;2.70;;
53044;SDS011;38930;52.766;6.884;2022-08-06T06:24:32;3.35;;;2.53;;
53044;SDS011;38930;52.766;6.884;2022-08-06T06:27:16;6.68;;;2.92;;
53044;SDS011;38930;52.766;6.884;2022-08-06T06:32:35;3.80;;;2.35;;
53044;SDS011;38930;52.766;6.884;2022-08-06T06:37:53;4.28;;;2.53;;
53044;SDS011;38930;52.766;6.884;2022-08-06T06:40:25;3.70;;;2.33;;
53044;SDS011;38930;52.766;6.884;2022-08-06T06:46:05;4.70;;;2.58;;
53044;SDS011;38930;52.766;6.884;2022-08-06T06:48:37;4.05;;;3.13;;
53044;SDS011;38930;52.766;6.884;2022-08-06T06:51:50;5.55;;;3.60;;
53044;SDS011;38930;52.766;6.884;2022-08-06T06:54:11;4.75;;;3.17;;
53044;SDS011;38930;52.766;6.884;2022-08-06T06:56:44;4.40;;;3.38;;
53044;SDS011;38930;52.766;6.884;2022-08-06T06:59:18;6.22;;;3.03;;
53044;SDS011;38930;52.766;6.884;2022-08-06T07:01:46;3.55;;;2.47;;
53044;SDS011;38930;52.766;6.884;2022-08-06T07:04:13;7.35;;;2.65;;
53044;SDS011;38930;52.766;6.884;2022-08-06T07:06:41;3.88;;;2.55;;
53044;SDS011;38930;52.766;6.884;2022-08-06T07:09:15;2.78;;;1.73;;
53044;SDS011;38930;52.766;6.884;2022-08-06T07:11:43;4.00;;;1.90;;
53044;SDS011;38930;52.766;6.884;2022-08-06T07:14:10;2.53;;;1.75;;
53044;SDS011;38930;52.766;6.884;2022-08-06T07:16:36;5.32;;;1.92;;
53044;SDS011;38930;52.766;6.884;2022-08-06T07:21:30;3.05;;;1.52;;
53044;SDS011;38930;52.766;6.884;2022-08-06T07:23:57;2.20;;;1.10;;
53044;SDS011;38930;52.766;6.884;2022-08-06T07:26:23;4.03;;;1.10;;
53044;SDS011;38930;52.766;6.884;2022-08-06T07:28:51;1.80;;;0.95;;
53044;SDS011;38930;52.766;6.884;2022-08-06T07:31:18;2.13;;;1.10;;
53044;SDS011;38930;52.766;6.884;2022-08-06T07:33:49;2.97;;;0.93;;
53044;SDS011;38930;52.766;6.884;2022-08-06T07:38:44;2.72;;;1.00;;
53044;SDS011;38930;52.766;6.884;2022-08-06T07:41:11;3.10;;;1.10;;
53044;SDS011;38930;52.766;6.884;2022-08-06T07:46:17;3.63;;;1.00;;
53044;SDS011;38930;52.766;6.884;2022-08-06T07:48:49;2.05;;;1.00;;
53044;SDS011;38930;52.766;6.884;2022-08-06T07:51:20;3.38;;;0.82;;
53044;SDS011;38930;52.766;6.884;2022-08-06T07:53:48;3.05;;;1.00;;
53044;SDS011;38930;52.766;6.884;2022-08-06T07:56:15;1.35;;;0.70;;
53044;SDS011;38930;52.766;6.884;2022-08-06T07:58:43;2.58;;;0.80;;
53044;SDS011;38930;52.766;6.884;2022-08-06T08:01:09;2.30;;;0.70;;
53044;SDS011;38930;52.766;6.884;2022-08-06T08:03:36;2.75;;;0.70;;
53044;SDS011;38930;52.766;6.884;2022-08-06T08:06:21;1.80;;;0.80;;
53044;SDS011;38930;52.766;6.884;2022-08-06T08:11:47;2.42;;;0.80;;
53044;SDS011;38930;52.766;6.884;2022-08-06T08:16:42;4.05;;;0.93;;
53044;SDS011;38930;52.766;6.884;2022-08-06T08:19:18;1.83;;;0.73;;
53044;SDS011;38930;52.766;6.884;2022-08-06T08:21:45;2.75;;;0.70;;
53044;SDS011;38930;52.766;6.884;2022-08-06T08:24:11;4.00;;;0.73;;
53044;SDS011;38930;52.766;6.884;2022-08-06T08:26:36;1.70;;;0.70;;
53044;SDS011;38930;52.766;6.884;2022-08-06T08:29:02;3.00;;;0.80;;
53044;SDS011;38930;52.766;6.884;2022-08-06T08:31:27;1.80;;;0.70;;
53044;SDS011;38930;52.766;6.884;2022-08-06T08:33:53;2.40;;;0.70;;
53044;SDS011;38930;52.766;6.884;2022-08-06T08:36:18;2.53;;;0.87;;
53044;SDS011;38930;52.766;6.884;2022-08-06T08:41:44;2.90;;;0.77;;
53044;SDS011;38930;52.766;6.884;2022-08-06T08:44:14;2.35;;;0.65;;
53044;SDS011;38930;52.766;6.884;2022-08-06T08:46:45;8.38;;;1.08;;
53044;SDS011;38930;52.766;6.884;2022-08-06T08:49:25;2.85;;;0.80;;
53044;SDS011;38930;52.766;6.884;2022-08-06T08:52:09;3.58;;;0.82;;
53044;SDS011;38930;52.766;6.884;2022-08-06T08:54:41;2.55;;;0.75;;
53044;SDS011;38930;52.766;6.884;2022-08-06T08:57:10;3.22;;;0.82;;
53044;SDS011;38930;52.766;6.884;2022-08-06T08:59:36;2.60;;;0.80;;
53044;SDS011;38930;52.766;6.884;2022-08-06T09:02:02;1.10;;;0.70;;
53044;SDS011;38930;52.766;6.884;2022-08-06T09:04:31;2.33;;;0.65;;
53044;SDS011;38930;52.766;6.884;2022-08-06T09:06:57;2.17;;;0.82;;
53044;SDS011;38930;52.766;6.884;2022-08-06T09:09:24;2.00;;;0.77;;
53044;SDS011;38930;52.766;6.884;2022-08-06T09:11:51;2.20;;;0.60;;
53044;SDS011;38930;52.766;6.884;2022-08-06T09:14:17;1.90;;;0.50;;
53044;SDS011;38930;52.766;6.884;2022-08-06T09:16:45;2.45;;;0.98;;
53044;SDS011;38930;52.766;6.884;2022-08-06T09:19:11;2.53;;;0.73;;
53044;SDS011;38930;52.766;6.884;2022-08-06T09:21:37;1.20;;;0.70;;
53044;SDS011;38930;52.766;6.884;2022-08-06T09:24:03;2.77;;;0.90;;
53044;SDS011;38930;52.766;6.884;2022-08-06T09:26:29;10.32;;;1.00;;
53044;SDS011;38930;52.766;6.884;2022-08-06T09:28:58;2.35;;;0.80;;
53044;SDS011;38930;52.766;6.884;2022-08-06T09:31:24;1.20;;;0.70;;
53044;SDS011;38930;52.766;6.884;2022-08-06T09:34:00;2.20;;;0.70;;
53044;SDS011;38930;52.766;6.884;2022-08-06T09:36:27;1.55;;;0.60;;
53044;SDS011;38930;52.766;6.884;2022-08-06T09:39:05;2.15;;;0.80;;
53044;SDS011;38930;52.766;6.884;2022-08-06T09:41:30;2.57;;;0.70;;
53044;SDS011;38930;52.766;6.884;2022-08-06T09:43:56;3.87;;;0.90;;
53044;SDS011;38930;52.766;6.884;2022-08-06T09:49:02;35.20;;;3.55;;
53044;SDS011;38930;52.766;6.884;2022-08-06T09:51:27;11.40;;;1.70;;
53044;SDS011;38930;52.766;6.884;2022-08-06T09:56:21;2.97;;;0.85;;
53044;SDS011;38930;52.766;6.884;2022-08-06T09:58:47;1.73;;;0.73;;
53044;SDS011;38930;52.766;6.884;2022-08-06T10:01:17;3.00;;;0.75;;
53044;SDS011;38930;52.766;6.884;2022-08-06T10:03:47;1.80;;;0.75;;
53044;SDS011;38930;52.766;6.884;2022-08-06T10:06:15;2.28;;;0.70;;
53044;SDS011;38930;52.766;6.884;2022-08-06T10:08:45;2.65;;;0.70;;
53044;SDS011;38930;52.766;6.884;2022-08-06T10:11:12;3.30;;;0.70;;
53044;SDS011;38930;52.766;6.884;2022-08-06T10:13:39;1.83;;;0.80;;
53044;SDS011;38930;52.766;6.884;2022-08-06T10:16:18;2.30;;;0.80;;
53044;SDS011;38930;52.766;6.884;2022-08-06T10:18:46;2.38;;;0.77;;
53044;SDS011;38930;52.766;6.884;2022-08-06T10:21:18;1.95;;;0.80;;
53044;SDS011;38930;52.766;6.884;2022-08-06T10:23:49;3.53;;;0.90;;
53044;SDS011;38930;52.766;6.884;2022-08-06T10:26:17;2.83;;;0.98;;
53044;SDS011;38930;52.766;6.884;2022-08-06T10:28:46;3.25;;;0.70;;
53044;SDS011;38930;52.766;6.884;2022-08-06T10:31:13;2.58;;;0.80;;
53044;SDS011;38930;52.766;6.884;2022-08-06T10:33:57;3.72;;;0.98;;
53044;SDS011;38930;52.766;6.884;2022-08-06T10:36:28;3.28;;;0.90;;
53044;SDS011;38930;52.766;6.884;2022-08-06T10:38:56;3.25;;;1.20;;
53044;SDS011;38930;52.766;6.884;2022-08-06T10:41:22;2.92;;;1.50;;
53044;SDS011;38930;52.766;6.884;2022-08-06T10:43:48;2.83;;;1.55;;
53044;SDS011;38930;52.766;6.884;2022-08-06T10:46:15;2.97;;;1.27;;
53044;SDS011;38930;52.766;6.884;2022-08-06T10:48:42;3.03;;;1.35;;
53044;SDS011;38930;52.766;6.884;2022-08-06T10:51:10;2.40;;;1.30;;
53044;SDS011;38930;52.766;6.884;2022-08-06T10:53:39;3.67;;;1.30;;
53044;SDS011;38930;52.766;6.884;2022-08-06T10:56:07;2.75;;;1.30;;
53044;SDS011;38930;52.766;6.884;2022-08-06T10:58:35;3.45;;;1.40;;
53044;SDS011;38930;52.766;6.884;2022-08-06T11:01:03;2.53;;;1.30;;
53044;SDS011;38930;52.766;6.884;2022-08-06T11:06:56;1.70;;;1.20;;
53044;SDS011;38930;52.766;6.884;2022-08-06T11:10:40;2.65;;;1.20;;
53044;SDS011;38930;52.766;6.884;2022-08-06T11:12:52;2.85;;;1.50;;
53044;SDS011;38930;52.766;6.884;2022-08-06T11:15:27;1.45;;;0.93;;
53044;SDS011;38930;52.766;6.884;2022-08-06T11:18:07;2.45;;;1.00;;
53044;SDS011;38930;52.766;6.884;2022-08-06T11:25:43;2.40;;;1.33;;
53044;SDS011;38930;52.766;6.884;2022-08-06T11:28:16;1.83;;;1.08;;
53044;SDS011;38930;52.766;6.884;2022-08-06T11:33:20;2.22;;;1.20;;
53044;SDS011;38930;52.766;6.884;2022-08-06T11:36:26;2.22;;;1.33;;
53044;SDS011;38930;52.766;6.884;2022-08-06T11:41:19;2.40;;;1.40;;
53044;SDS011;38930;52.766;6.884;2022-08-06T11:46:17;2.65;;;1.40;;
53044;SDS011;38930;52.766;6.884;2022-08-06T11:51:41;4.90;;;1.40;;
53044;SDS011;38930;52.766;6.884;2022-08-06T12:02:08;2.65;;;1.50;;
53044;SDS011;38930;52.766;6.884;2022-08-06T12:07:20;5.10;;;1.43;;
53044;SDS011;38930;52.766;6.884;2022-08-06T12:10:00;2.38;;;1.27;;
53044;SDS011;38930;52.766;6.884;2022-08-06T12:15:01;2.38;;;1.30;;
53044;SDS011;38930;52.766;6.884;2022-08-06T12:20:38;3.22;;;1.30;;
53044;SDS011;38930;52.766;6.884;2022-08-06T12:23:09;3.42;;;1.38;;
53044;SDS011;38930;52.766;6.884;2022-08-06T12:28:03;3.03;;;1.20;;
53044;SDS011;38930;52.766;6.884;2022-08-06T12:30:42;2.70;;;1.27;;
53044;SDS011;38930;52.766;6.884;2022-08-06T12:33:09;2.72;;;1.10;;
53044;SDS011;38930;52.766;6.884;2022-08-06T12:38:14;1.90;;;0.88;;
53044;SDS011;38930;52.766;6.884;2022-08-06T12:40:40;3.60;;;1.10;;
53044;SDS011;38930;52.766;6.884;2022-08-06T12:43:19;2.75;;;1.25;;
53044;SDS011;38930;52.766;6.884;2022-08-06T12:45:44;2.90;;;1.07;;
53044;SDS011;38930;52.766;6.884;2022-08-06T12:48:11;3.17;;;0.90;;
53044;SDS011;38930;52.766;6.884;2022-08-06T12:50:41;2.45;;;1.17;;
53044;SDS011;38930;52.766;6.884;2022-08-06T12:53:09;3.53;;;1.10;;
53044;SDS011;38930;52.766;6.884;2022-08-06T12:55:43;3.20;;;1.10;;
53044;SDS011;38930;52.766;6.884;2022-08-06T12:58:11;3.10;;;1.20;;
53044;SDS011;38930;52.766;6.884;2022-08-06T13:00:39;3.83;;;1.23;;
53044;SDS011;38930;52.766;6.884;2022-08-06T13:03:06;3.30;;;1.20;;
53044;SDS011;38930;52.766;6.884;2022-08-06T13:05:33;3.03;;;1.50;;
53044;SDS011;38930;52.766;6.884;2022-08-06T13:07:59;1.85;;;1.23;;
53044;SDS011;38930;52.766;6.884;2022-08-06T13:10:26;1.98;;;1.13;;
53044;SDS011;38930;52.766;6.884;2022-08-06T13:12:55;3.33;;;1.30;;
53044;SDS011;38930;52.766;6.884;2022-08-06T13:15:21;3.20;;;1.10;;
53044;SDS011;38930;52.766;6.884;2022-08-06T13:18:04;2.03;;;1.40;;
53044;SDS011;38930;52.766;6.884;2022-08-06T13:20:41;3.22;;;1.60;;
53044;SDS011;38930;52.766;6.884;2022-08-06T13:23:09;2.60;;;1.20;;
53044;SDS011;38930;52.766;6.884;2022-08-06T13:25:42;2.08;;;1.15;;
53044;SDS011;38930;52.766;6.884;2022-08-06T13:28:10;2.20;;;1.23;;
53044;SDS011;38930;52.766;6.884;2022-08-06T13:30:38;2.10;;;1.10;;
53044;SDS011;38930;52.766;6.884;2022-08-06T13:33:17;2.20;;;1.35;;
53044;SDS011;38930;52.766;6.884;2022-08-06T13:35:46;1.40;;;1.00;;
53044;SDS011;38930;52.766;6.884;2022-08-06T13:38:26;4.80;;;1.20;;
53044;SDS011;38930;52.766;6.884;2022-08-06T13:40:53;3.50;;;1.30;;
53044;SDS011;38930;52.766;6.884;2022-08-06T13:43:19;2.72;;;1.45;;
53044;SDS011;38930;52.766;6.884;2022-08-06T13:45:46;1.92;;;1.20;;
53044;SDS011;38930;52.766;6.884;2022-08-06T13:48:12;3.65;;;1.10;;
53044;SDS011;38930;52.766;6.884;2022-08-06T13:50:39;4.13;;;1.13;;
53044;SDS011;38930;52.766;6.884;2022-08-06T13:53:09;3.45;;;1.17;;
53044;SDS011;38930;52.766;6.884;2022-08-06T13:55:36;2.45;;;1.42;;
53044;SDS011;38930;52.766;6.884;2022-08-06T13:58:03;3.10;;;1.30;;
53044;SDS011;38930;52.766;6.884;2022-08-06T14:00:29;2.63;;;1.27;;
53044;SDS011;38930;52.766;6.884;2022-08-06T14:02:55;5.03;;;1.60;;
53044;SDS011;38930;52.766;6.884;2022-08-06T14:05:21;2.97;;;1.23;;
53044;SDS011;38930;52.766;6.884;2022-08-06T14:07:48;2.45;;;1.20;;
53044;SDS011;38930;52.766;6.884;2022-08-06T14:10:14;1.75;;;1.13;;
53044;SDS011;38930;52.766;6.884;2022-08-06T14:12:42;2.22;;;1.33;;
53044;SDS011;38930;52.766;6.884;2022-08-06T14:15:29;3.65;;;1.52;;
53044;SDS011;38930;52.766;6.884;2022-08-06T14:17:56;3.45;;;1.30;;
53044;SDS011;38930;52.766;6.884;2022-08-06T14:20:24;2.53;;;1.33;;
53044;SDS011;38930;52.766;6.884;2022-08-06T14:22:50;2.73;;;1.20;;
53044;SDS011;38930;52.766;6.884;2022-08-06T14:25:16;2.08;;;1.30;;
53044;SDS011;38930;52.766;6.884;2022-08-06T14:27:42;2.00;;;1.30;;
53044;SDS011;38930;52.766;6.884;2022-08-06T14:30:08;1.60;;;1.10;;
53044;SDS011;38930;52.766;6.884;2022-08-06T14:32:34;2.08;;;1.13;;
53044;SDS011;38930;52.766;6.884;2022-08-06T14:35:00;3.07;;;1.17;;
53044;SDS011;38930;52.766;6.884;2022-08-06T14:37:26;1.85;;;1.20;;
53044;SDS011;38930;52.766;6.884;2022-08-06T14:39:51;1.97;;;1.30;;
53044;SDS011;38930;52.766;6.884;2022-08-06T14:42:17;3.87;;;1.43;;
53044;SDS011;38930;52.766;6.884;2022-08-06T14:45:01;2.95;;;1.40;;
53044;SDS011;38930;52.766;6.884;2022-08-06T14:47:31;2.20;;;1.30;;
53044;SDS011;38930;52.766;6.884;2022-08-06T14:49:57;4.82;;;1.70;;
53044;SDS011;38930;52.766;6.884;2022-08-06T14:52:23;2.43;;;1.50;;
53044;SDS011;38930;52.766;6.884;2022-08-06T14:54:49;2.10;;;1.40;;
53044;SDS011;38930;52.766;6.884;2022-08-06T14:57:14;3.20;;;1.50;;
53044;SDS011;38930;52.766;6.884;2022-08-06T14:59:40;2.75;;;1.50;;
53044;SDS011;38930;52.766;6.884;2022-08-06T15:02:06;4.57;;;1.50;;
53044;SDS011;38930;52.766;6.884;2022-08-06T15:04:32;3.53;;;1.52;;
53044;SDS011;38930;52.766;6.884;2022-08-06T15:06:58;3.03;;;1.63;;
53044;SDS011;38930;52.766;6.884;2022-08-06T15:09:23;3.73;;;1.67;;
53044;SDS011;38930;52.766;6.884;2022-08-06T15:11:49;5.57;;;1.60;;
53044;SDS011;38930;52.766;6.884;2022-08-06T15:14:15;3.20;;;1.53;;
53044;SDS011;38930;52.766;6.884;2022-08-06T15:16:41;3.13;;;1.47;;
53044;SDS011;38930;52.766;6.884;2022-08-06T15:19:06;3.47;;;1.73;;
53044;SDS011;38930;52.766;6.884;2022-08-06T15:21:33;3.60;;;1.63;;
53044;SDS011;38930;52.766;6.884;2022-08-06T15:23:58;4.28;;;1.60;;
53044;SDS011;38930;52.766;6.884;2022-08-06T15:26:25;2.60;;;1.80;;
53044;SDS011;38930;52.766;6.884;2022-08-06T15:28:51;4.15;;;1.92;;
53044;SDS011;38930;52.766;6.884;2022-08-06T15:33:43;4.38;;;1.90;;
53044;SDS011;38930;52.766;6.884;2022-08-06T15:36:10;2.92;;;1.90;;
53044;SDS011;38930;52.766;6.884;2022-08-06T15:38:36;3.42;;;1.80;;
53044;SDS011;38930;52.766;6.884;2022-08-06T15:41:04;3.15;;;1.65;;
53044;SDS011;38930;52.766;6.884;2022-08-06T15:43:31;1.98;;;1.50;;
53044;SDS011;38930;52.766;6.884;2022-08-06T15:45:57;2.27;;;1.60;;
53044;SDS011;38930;52.766;6.884;2022-08-06T15:48:24;2.33;;;1.48;;
53044;SDS011;38930;52.766;6.884;2022-08-06T15:50:51;3.70;;;1.67;;
53044;SDS011;38930;52.766;6.884;2022-08-06T15:53:17;5.40;;;1.80;;
53044;SDS011;38930;52.766;6.884;2022-08-06T15:55:43;3.33;;;1.60;;
53044;SDS011;38930;52.766;6.884;2022-08-06T15:58:09;3.63;;;1.88;;
53044;SDS011;38930;52.766;6.884;2022-08-06T16:00:36;2.63;;;1.50;;
53044;SDS011;38930;52.766;6.884;2022-08-06T16:03:04;3.30;;;1.60;;
53044;SDS011;38930;52.766;6.884;2022-08-06T16:05:31;2.75;;;1.80;;
53044;SDS011;38930;52.766;6.884;2022-08-06T16:07:56;4.03;;;1.90;;
53044;SDS011;38930;52.766;6.884;2022-08-06T16:10:22;3.87;;;1.80;;
53044;SDS011;38930;52.766;6.884;2022-08-06T16:12:49;2.28;;;1.60;;
53044;SDS011;38930;52.766;6.884;2022-08-06T16:15:16;2.92;;;1.50;;
53044;SDS011;38930;52.766;6.884;2022-08-06T16:17:42;3.63;;;1.87;;
53044;SDS011;38930;52.766;6.884;2022-08-06T16:20:07;2.33;;;1.60;;
53044;SDS011;38930;52.766;6.884;2022-08-06T16:22:33;2.50;;;1.43;;
53044;SDS011;38930;52.766;6.884;2022-08-06T16:24:59;3.10;;;1.67;;
53044;SDS011;38930;52.766;6.884;2022-08-06T16:27:24;2.97;;;1.67;;
53044;SDS011;38930;52.766;6.884;2022-08-06T16:29:50;2.57;;;1.40;;
53044;SDS011;38930;52.766;6.884;2022-08-06T16:32:16;3.00;;;1.60;;
53044;SDS011;38930;52.766;6.884;2022-08-06T16:34:42;3.53;;;1.83;;
53044;SDS011;38930;52.766;6.884;2022-08-06T16:37:08;4.47;;;1.40;;
53044;SDS011;38930;52.766;6.884;2022-08-06T16:39:34;3.38;;;1.73;;